sensor_id;sensor_type;location;lat;lon;timestamp;P1;durP1;ratioP1;P2;durP2;ratioP2
14141;SDS011;7151;52.246;4.820;2023-08-21T00:00:44;4.27;;;1.27;;
14141;SDS011;7151;52.246;4.820;2023-08-21T00:03:09;3.93;;;1.43;;
14141;SDS011;7151;52.246;4.820;2023-08-21T00:05:35;2.07;;;1.17;;
14141;SDS011;7151;52.246;4.820;2023-08-21T00:08:00;6.70;;;1.50;;
14141;SDS011;7151;52.246;4.820;2023-08-21T00:10:26;3.33;;;1.23;;
14141;SDS011;7151;52.246;4.820;2023-08-21T00:12:51;2.83;;;1.20;;
14141;SDS011;7151;52.246;4.820;2023-08-21T00:15:17;4.47;;;1.60;;
14141;SDS011;7151;52.246;4.820;2023-08-21T00:17:42;3.13;;;1.10;;
14141;SDS011;7151;52.246;4.820;2023-08-21T00:20:08;2.57;;;1.20;;
14141;SDS011;7151;52.246;4.820;2023-08-21T00:22:35;2.37;;;1.33;;
14141;SDS011;7151;52.246;4.820;2023-08-21T00:25:01;2.57;;;1.30;;
14141;SDS011;7151;52.246;4.820;2023-08-21T00:27:27;3.13;;;1.20;;
14141;SDS011;7151;52.246;4.820;2023-08-21T00:29:53;5.17;;;1.23;;
14141;SDS011;7151;52.246;4.820;2023-08-21T00:32:18;1.93;;;1.20;;
14141;SDS011;7151;52.246;4.820;2023-08-21T00:34:44;2.77;;;1.43;;
14141;SDS011;7151;52.246;4.820;2023-08-21T00:37:09;2.27;;;1.13;;
14141;SDS011;7151;52.246;4.820;2023-08-21T00:39:36;6.83;;;1.40;;
14141;SDS011;7151;52.246;4.820;2023-08-21T00:42:01;1.17;;;0.90;;
14141;SDS011;7151;52.246;4.820;2023-08-21T00:44:27;3.00;;;1.17;;
14141;SDS011;7151;52.246;4.820;2023-08-21T00:46:52;3.80;;;1.23;;
14141;SDS011;7151;52.246;4.820;2023-08-21T00:49:18;3.20;;;1.33;;
14141;SDS011;7151;52.246;4.820;2023-08-21T00:51:45;3.73;;;1.00;;
14141;SDS011;7151;52.246;4.820;2023-08-21T00:54:11;2.17;;;1.10;;
14141;SDS011;7151;52.246;4.820;2023-08-21T00:56:36;1.47;;;1.30;;
14141;SDS011;7151;52.246;4.820;2023-08-21T00:59:02;1.60;;;1.30;;
14141;SDS011;7151;52.246;4.820;2023-08-21T01:01:28;3.10;;;1.30;;
14141;SDS011;7151;52.246;4.820;2023-08-21T01:03:54;1.20;;;1.00;;
14141;SDS011;7151;52.246;4.820;2023-08-21T01:06:19;2.60;;;1.30;;
14141;SDS011;7151;52.246;4.820;2023-08-21T01:11:15;2.20;;;1.13;;
14141;SDS011;7151;52.246;4.820;2023-08-21T01:13:56;1.77;;;1.17;;
14141;SDS011;7151;52.246;4.820;2023-08-21T01:16:39;2.50;;;1.10;;
14141;SDS011;7151;52.246;4.820;2023-08-21T01:19:09;1.20;;;0.80;;
14141;SDS011;7151;52.246;4.820;2023-08-21T01:21:43;2.03;;;1.03;;
14141;SDS011;7151;52.246;4.820;2023-08-21T01:24:08;2.33;;;0.83;;
14141;SDS011;7151;52.246;4.820;2023-08-21T01:26:34;2.10;;;1.00;;
14141;SDS011;7151;52.246;4.820;2023-08-21T01:28:59;3.57;;;1.10;;
14141;SDS011;7151;52.246;4.820;2023-08-21T01:31:26;1.63;;;1.30;;
14141;SDS011;7151;52.246;4.820;2023-08-21T01:33:58;3.93;;;1.03;;
14141;SDS011;7151;52.246;4.820;2023-08-21T01:36:26;1.83;;;1.23;;
14141;SDS011;7151;52.246;4.820;2023-08-21T01:38:53;1.17;;;0.80;;
14141;SDS011;7151;52.246;4.820;2023-08-21T01:41:19;2.13;;;1.07;;
14141;SDS011;7151;52.246;4.820;2023-08-21T01:43:48;1.97;;;1.13;;
14141;SDS011;7151;52.246;4.820;2023-08-21T01:46:14;2.00;;;1.10;;
14141;SDS011;7151;52.246;4.820;2023-08-21T01:48:39;1.20;;;0.90;;
14141;SDS011;7151;52.246;4.820;2023-08-21T01:51:05;2.13;;;1.00;;
14141;SDS011;7151;52.246;4.820;2023-08-21T01:53:30;3.43;;;0.90;;
14141;SDS011;7151;52.246;4.820;2023-08-21T01:55:56;2.83;;;1.10;;
14141;SDS011;7151;52.246;4.820;2023-08-21T01:58:22;1.87;;;1.00;;
14141;SDS011;7151;52.246;4.820;2023-08-21T02:00:47;1.77;;;1.20;;
14141;SDS011;7151;52.246;4.820;2023-08-21T02:03:13;2.40;;;0.93;;
14141;SDS011;7151;52.246;4.820;2023-08-21T02:05:39;1.37;;;0.93;;
14141;SDS011;7151;52.246;4.820;2023-08-21T02:08:06;2.20;;;1.00;;
14141;SDS011;7151;52.246;4.820;2023-08-21T02:10:34;1.40;;;1.20;;
14141;SDS011;7151;52.246;4.820;2023-08-21T02:12:59;1.40;;;1.17;;
14141;SDS011;7151;52.246;4.820;2023-08-21T02:15:25;1.73;;;1.57;;
14141;SDS011;7151;52.246;4.820;2023-08-21T02:17:50;1.63;;;1.10;;
14141;SDS011;7151;52.246;4.820;2023-08-21T02:20:16;1.90;;;1.30;;
14141;SDS011;7151;52.246;4.820;2023-08-21T02:22:41;1.97;;;1.20;;
14141;SDS011;7151;52.246;4.820;2023-08-21T02:25:07;1.20;;;1.10;;
14141;SDS011;7151;52.246;4.820;2023-08-21T02:27:33;2.43;;;1.10;;
14141;SDS011;7151;52.246;4.820;2023-08-21T02:29:58;5.57;;;1.60;;
14141;SDS011;7151;52.246;4.820;2023-08-21T02:32:24;1.30;;;1.20;;
14141;SDS011;7151;52.246;4.820;2023-08-21T02:34:49;2.33;;;1.30;;
14141;SDS011;7151;52.246;4.820;2023-08-21T02:37:15;1.10;;;0.90;;
14141;SDS011;7151;52.246;4.820;2023-08-21T02:39:40;2.07;;;1.07;;
14141;SDS011;7151;52.246;4.820;2023-08-21T02:42:06;1.97;;;1.00;;
14141;SDS011;7151;52.246;4.820;2023-08-21T02:44:31;2.23;;;1.13;;
14141;SDS011;7151;52.246;4.820;2023-08-21T02:46:57;1.67;;;0.97;;
14141;SDS011;7151;52.246;4.820;2023-08-21T02:49:22;2.83;;;0.93;;
14141;SDS011;7151;52.246;4.820;2023-08-21T02:51:48;1.97;;;0.97;;
14141;SDS011;7151;52.246;4.820;2023-08-21T02:54:14;4.90;;;1.30;;
14141;SDS011;7151;52.246;4.820;2023-08-21T02:56:39;1.90;;;1.10;;
14141;SDS011;7151;52.246;4.820;2023-08-21T02:59:05;1.17;;;1.07;;
14141;SDS011;7151;52.246;4.820;2023-08-21T03:01:30;3.30;;;1.33;;
14141;SDS011;7151;52.246;4.820;2023-08-21T03:03:56;2.50;;;1.27;;
14141;SDS011;7151;52.246;4.820;2023-08-21T03:06:22;1.57;;;1.00;;
14141;SDS011;7151;52.246;4.820;2023-08-21T03:08:47;1.30;;;1.00;;
14141;SDS011;7151;52.246;4.820;2023-08-21T03:11:13;2.63;;;1.10;;
14141;SDS011;7151;52.246;4.820;2023-08-21T03:13:38;3.03;;;1.50;;
14141;SDS011;7151;52.246;4.820;2023-08-21T03:16:04;1.30;;;1.20;;
14141;SDS011;7151;52.246;4.820;2023-08-21T03:18:30;1.97;;;1.20;;
14141;SDS011;7151;52.246;4.820;2023-08-21T03:20:56;1.50;;;1.27;;
14141;SDS011;7151;52.246;4.820;2023-08-21T03:23:22;3.07;;;1.30;;
14141;SDS011;7151;52.246;4.820;2023-08-21T03:25:48;3.73;;;1.00;;
14141;SDS011;7151;52.246;4.820;2023-08-21T03:28:16;1.37;;;1.17;;
14141;SDS011;7151;52.246;4.820;2023-08-21T03:30:42;1.23;;;0.73;;
14141;SDS011;7151;52.246;4.820;2023-08-21T03:33:07;4.47;;;1.77;;
14141;SDS011;7151;52.246;4.820;2023-08-21T03:35:33;3.07;;;1.17;;
14141;SDS011;7151;52.246;4.820;2023-08-21T03:37:59;2.13;;;1.03;;
14141;SDS011;7151;52.246;4.820;2023-08-21T03:40:24;2.20;;;1.50;;
14141;SDS011;7151;52.246;4.820;2023-08-21T03:42:50;2.07;;;1.30;;
14141;SDS011;7151;52.246;4.820;2023-08-21T03:45:15;2.23;;;1.10;;
14141;SDS011;7151;52.246;4.820;2023-08-21T03:47:41;2.23;;;1.50;;
14141;SDS011;7151;52.246;4.820;2023-08-21T03:50:06;2.60;;;1.30;;
14141;SDS011;7151;52.246;4.820;2023-08-21T03:52:32;1.50;;;1.10;;
14141;SDS011;7151;52.246;4.820;2023-08-21T03:54:58;5.40;;;1.30;;
14141;SDS011;7151;52.246;4.820;2023-08-21T03:57:23;1.90;;;1.30;;
14141;SDS011;7151;52.246;4.820;2023-08-21T03:59:49;1.80;;;1.20;;
14141;SDS011;7151;52.246;4.820;2023-08-21T04:02:14;2.07;;;1.43;;
14141;SDS011;7151;52.246;4.820;2023-08-21T04:04:40;3.03;;;1.30;;
14141;SDS011;7151;52.246;4.820;2023-08-21T04:07:05;6.70;;;1.60;;
14141;SDS011;7151;52.246;4.820;2023-08-21T04:09:31;1.97;;;1.10;;
14141;SDS011;7151;52.246;4.820;2023-08-21T04:11:56;3.33;;;1.30;;
14141;SDS011;7151;52.246;4.820;2023-08-21T04:14:22;5.63;;;1.67;;
14141;SDS011;7151;52.246;4.820;2023-08-21T04:16:48;1.83;;;1.40;;
14141;SDS011;7151;52.246;4.820;2023-08-21T04:19:13;1.07;;;0.90;;
14141;SDS011;7151;52.246;4.820;2023-08-21T04:21:39;0.80;;;0.80;;
14141;SDS011;7151;52.246;4.820;2023-08-21T04:24:04;1.30;;;1.17;;
14141;SDS011;7151;52.246;4.820;2023-08-21T04:26:30;2.07;;;1.03;;
14141;SDS011;7151;52.246;4.820;2023-08-21T04:28:56;2.00;;;1.63;;
14141;SDS011;7151;52.246;4.820;2023-08-21T04:31:21;2.13;;;1.17;;
14141;SDS011;7151;52.246;4.820;2023-08-21T04:33:47;4.90;;;1.40;;
14141;SDS011;7151;52.246;4.820;2023-08-21T04:36:15;2.97;;;1.60;;
14141;SDS011;7151;52.246;4.820;2023-08-21T04:38:42;1.43;;;1.17;;
14141;SDS011;7151;52.246;4.820;2023-08-21T04:41:08;1.10;;;1.00;;
14141;SDS011;7151;52.246;4.820;2023-08-21T04:43:34;2.30;;;1.20;;
14141;SDS011;7151;52.246;4.820;2023-08-21T04:46:00;3.20;;;1.40;;
14141;SDS011;7151;52.246;4.820;2023-08-21T04:48:25;1.70;;;1.30;;
14141;SDS011;7151;52.246;4.820;2023-08-21T04:50:51;2.47;;;1.43;;
14141;SDS011;7151;52.246;4.820;2023-08-21T04:53:16;1.17;;;1.07;;
14141;SDS011;7151;52.246;4.820;2023-08-21T04:55:42;2.17;;;1.40;;
14141;SDS011;7151;52.246;4.820;2023-08-21T04:58:08;1.10;;;0.97;;
14141;SDS011;7151;52.246;4.820;2023-08-21T05:00:34;1.97;;;1.40;;
14141;SDS011;7151;52.246;4.820;2023-08-21T05:03:00;1.37;;;1.27;;
14141;SDS011;7151;52.246;4.820;2023-08-21T05:05:25;5.27;;;1.60;;
14141;SDS011;7151;52.246;4.820;2023-08-21T05:07:54;1.30;;;1.00;;
14141;SDS011;7151;52.246;4.820;2023-08-21T05:10:20;2.50;;;0.90;;
14141;SDS011;7151;52.246;4.820;2023-08-21T05:12:45;2.50;;;1.10;;
14141;SDS011;7151;52.246;4.820;2023-08-21T05:15:11;4.13;;;1.40;;
14141;SDS011;7151;52.246;4.820;2023-08-21T05:17:37;4.67;;;1.30;;
14141;SDS011;7151;52.246;4.820;2023-08-21T05:20:03;2.60;;;1.40;;
14141;SDS011;7151;52.246;4.820;2023-08-21T05:22:29;1.50;;;1.40;;
14141;SDS011;7151;52.246;4.820;2023-08-21T05:24:55;3.03;;;1.30;;
14141;SDS011;7151;52.246;4.820;2023-08-21T05:27:20;2.03;;;0.90;;
14141;SDS011;7151;52.246;4.820;2023-08-21T05:29:46;1.40;;;1.23;;
14141;SDS011;7151;52.246;4.820;2023-08-21T05:32:12;1.97;;;1.13;;
14141;SDS011;7151;52.246;4.820;2023-08-21T05:34:37;2.27;;;1.33;;
14141;SDS011;7151;52.246;4.820;2023-08-21T05:37:03;2.20;;;1.30;;
14141;SDS011;7151;52.246;4.820;2023-08-21T05:39:28;1.40;;;1.03;;
14141;SDS011;7151;52.246;4.820;2023-08-21T05:41:54;4.40;;;1.67;;
14141;SDS011;7151;52.246;4.820;2023-08-21T05:44:20;4.37;;;2.10;;
14141;SDS011;7151;52.246;4.820;2023-08-21T05:46:45;2.87;;;1.20;;
14141;SDS011;7151;52.246;4.820;2023-08-21T05:49:11;3.07;;;1.43;;
14141;SDS011;7151;52.246;4.820;2023-08-21T05:51:36;2.40;;;1.67;;
14141;SDS011;7151;52.246;4.820;2023-08-21T05:54:02;2.03;;;1.40;;
14141;SDS011;7151;52.246;4.820;2023-08-21T05:56:28;3.23;;;1.80;;
14141;SDS011;7151;52.246;4.820;2023-08-21T05:58:53;1.80;;;1.20;;
14141;SDS011;7151;52.246;4.820;2023-08-21T06:01:19;2.27;;;1.50;;
14141;SDS011;7151;52.246;4.820;2023-08-21T06:03:44;1.93;;;1.40;;
14141;SDS011;7151;52.246;4.820;2023-08-21T06:06:10;3.00;;;1.80;;
14141;SDS011;7151;52.246;4.820;2023-08-21T06:08:36;4.50;;;1.67;;
14141;SDS011;7151;52.246;4.820;2023-08-21T06:11:01;2.67;;;1.10;;
14141;SDS011;7151;52.246;4.820;2023-08-21T06:13:27;1.80;;;1.30;;
14141;SDS011;7151;52.246;4.820;2023-08-21T06:15:53;3.17;;;1.73;;
14141;SDS011;7151;52.246;4.820;2023-08-21T06:18:19;3.10;;;1.90;;
14141;SDS011;7151;52.246;4.820;2023-08-21T06:20:44;3.83;;;1.40;;
14141;SDS011;7151;52.246;4.820;2023-08-21T06:23:10;3.37;;;1.63;;
14141;SDS011;7151;52.246;4.820;2023-08-21T06:25:36;1.87;;;1.47;;
14141;SDS011;7151;52.246;4.820;2023-08-21T06:28:02;3.80;;;1.53;;
14141;SDS011;7151;52.246;4.820;2023-08-21T06:30:28;2.77;;;1.93;;
14141;SDS011;7151;52.246;4.820;2023-08-21T06:32:54;3.37;;;1.50;;
14141;SDS011;7151;52.246;4.820;2023-08-21T06:35:20;3.37;;;1.90;;
14141;SDS011;7151;52.246;4.820;2023-08-21T06:37:46;3.40;;;1.50;;
14141;SDS011;7151;52.246;4.820;2023-08-21T06:40:11;3.20;;;1.60;;
14141;SDS011;7151;52.246;4.820;2023-08-21T06:42:37;2.10;;;1.47;;
14141;SDS011;7151;52.246;4.820;2023-08-21T06:45:04;3.10;;;1.40;;
14141;SDS011;7151;52.246;4.820;2023-08-21T06:47:30;2.33;;;1.73;;
14141;SDS011;7151;52.246;4.820;2023-08-21T06:49:56;3.27;;;1.93;;
14141;SDS011;7151;52.246;4.820;2023-08-21T06:52:22;4.87;;;2.17;;
14141;SDS011;7151;52.246;4.820;2023-08-21T06:54:48;4.63;;;1.90;;
14141;SDS011;7151;52.246;4.820;2023-08-21T06:57:13;4.87;;;2.20;;
14141;SDS011;7151;52.246;4.820;2023-08-21T06:59:39;3.70;;;1.90;;
14141;SDS011;7151;52.246;4.820;2023-08-21T07:02:05;2.23;;;1.60;;
14141;SDS011;7151;52.246;4.820;2023-08-21T07:04:30;3.77;;;1.80;;
14141;SDS011;7151;52.246;4.820;2023-08-21T07:06:58;4.77;;;1.80;;
14141;SDS011;7151;52.246;4.820;2023-08-21T07:09:23;2.90;;;2.23;;
14141;SDS011;7151;52.246;4.820;2023-08-21T07:11:49;5.60;;;2.33;;
14141;SDS011;7151;52.246;4.820;2023-08-21T07:14:14;4.47;;;2.10;;
14141;SDS011;7151;52.246;4.820;2023-08-21T07:16:40;4.23;;;2.50;;
14141;SDS011;7151;52.246;4.820;2023-08-21T07:19:05;3.50;;;1.83;;
14141;SDS011;7151;52.246;4.820;2023-08-21T07:21:31;6.03;;;2.07;;
14141;SDS011;7151;52.246;4.820;2023-08-21T07:23:59;6.80;;;2.63;;
14141;SDS011;7151;52.246;4.820;2023-08-21T07:26:25;4.87;;;2.60;;
14141;SDS011;7151;52.246;4.820;2023-08-21T07:28:50;3.77;;;2.87;;
14141;SDS011;7151;52.246;4.820;2023-08-21T07:31:18;4.90;;;2.33;;
14141;SDS011;7151;52.246;4.820;2023-08-21T07:33:43;3.27;;;2.57;;
14141;SDS011;7151;52.246;4.820;2023-08-21T07:36:09;4.60;;;2.33;;
14141;SDS011;7151;52.246;4.820;2023-08-21T07:38:34;3.67;;;2.03;;
14141;SDS011;7151;52.246;4.820;2023-08-21T07:41:03;4.47;;;2.30;;
14141;SDS011;7151;52.246;4.820;2023-08-21T07:43:33;10.27;;;2.40;;
14141;SDS011;7151;52.246;4.820;2023-08-21T07:46:02;5.83;;;2.07;;
14141;SDS011;7151;52.246;4.820;2023-08-21T07:48:31;2.77;;;2.00;;
14141;SDS011;7151;52.246;4.820;2023-08-21T07:50:57;3.50;;;2.00;;
14141;SDS011;7151;52.246;4.820;2023-08-21T07:53:23;4.37;;;2.10;;
14141;SDS011;7151;52.246;4.820;2023-08-21T07:55:49;2.83;;;2.00;;
14141;SDS011;7151;52.246;4.820;2023-08-21T07:58:15;2.63;;;1.90;;
14141;SDS011;7151;52.246;4.820;2023-08-21T08:00:41;4.53;;;2.40;;
14141;SDS011;7151;52.246;4.820;2023-08-21T08:03:07;7.73;;;2.13;;
14141;SDS011;7151;52.246;4.820;2023-08-21T08:05:33;3.70;;;2.03;;
14141;SDS011;7151;52.246;4.820;2023-08-21T08:08:00;3.53;;;2.30;;
14141;SDS011;7151;52.246;4.820;2023-08-21T08:10:25;3.30;;;2.00;;
14141;SDS011;7151;52.246;4.820;2023-08-21T08:12:51;4.83;;;2.20;;
14141;SDS011;7151;52.246;4.820;2023-08-21T08:15:17;1.93;;;1.63;;
14141;SDS011;7151;52.246;4.820;2023-08-21T08:17:43;6.23;;;2.10;;
14141;SDS011;7151;52.246;4.820;2023-08-21T08:20:10;1.87;;;1.67;;
14141;SDS011;7151;52.246;4.820;2023-08-21T08:22:37;3.17;;;1.67;;
14141;SDS011;7151;52.246;4.820;2023-08-21T08:25:03;5.63;;;2.13;;
14141;SDS011;7151;52.246;4.820;2023-08-21T08:27:31;6.00;;;1.80;;
14141;SDS011;7151;52.246;4.820;2023-08-21T08:29:57;6.77;;;2.30;;
14141;SDS011;7151;52.246;4.820;2023-08-21T08:32:22;3.13;;;1.80;;
14141;SDS011;7151;52.246;4.820;2023-08-21T08:34:48;4.63;;;2.27;;
14141;SDS011;7151;52.246;4.820;2023-08-21T08:37:14;5.77;;;2.43;;
14141;SDS011;7151;52.246;4.820;2023-08-21T08:39:39;2.10;;;1.43;;
14141;SDS011;7151;52.246;4.820;2023-08-21T08:42:05;4.23;;;2.20;;
14141;SDS011;7151;52.246;4.820;2023-08-21T08:44:31;3.90;;;2.07;;
14141;SDS011;7151;52.246;4.820;2023-08-21T08:47:01;3.90;;;2.03;;
14141;SDS011;7151;52.246;4.820;2023-08-21T08:49:27;3.90;;;2.10;;
14141;SDS011;7151;52.246;4.820;2023-08-21T08:51:54;3.07;;;2.07;;
14141;SDS011;7151;52.246;4.820;2023-08-21T08:54:21;3.07;;;1.87;;
14141;SDS011;7151;52.246;4.820;2023-08-21T08:56:47;3.57;;;2.00;;
14141;SDS011;7151;52.246;4.820;2023-08-21T08:59:13;4.63;;;1.80;;
14141;SDS011;7151;52.246;4.820;2023-08-21T09:01:40;4.37;;;1.70;;
14141;SDS011;7151;52.246;4.820;2023-08-21T09:04:06;2.73;;;1.63;;
14141;SDS011;7151;52.246;4.820;2023-08-21T09:06:32;4.20;;;1.90;;
14141;SDS011;7151;52.246;4.820;2023-08-21T09:08:58;5.23;;;2.10;;
14141;SDS011;7151;52.246;4.820;2023-08-21T09:11:24;4.57;;;2.10;;
14141;SDS011;7151;52.246;4.820;2023-08-21T09:13:50;5.73;;;1.70;;
14141;SDS011;7151;52.246;4.820;2023-08-21T09:16:20;4.53;;;1.70;;
14141;SDS011;7151;52.246;4.820;2023-08-21T09:18:50;5.33;;;1.80;;
14141;SDS011;7151;52.246;4.820;2023-08-21T09:21:17;6.17;;;2.03;;
14141;SDS011;7151;52.246;4.820;2023-08-21T09:23:47;3.97;;;1.70;;
14141;SDS011;7151;52.246;4.820;2023-08-21T09:26:18;5.57;;;1.67;;
14141;SDS011;7151;52.246;4.820;2023-08-21T09:28:48;2.53;;;1.70;;
14141;SDS011;7151;52.246;4.820;2023-08-21T09:31:14;2.93;;;1.40;;
14141;SDS011;7151;52.246;4.820;2023-08-21T09:33:40;2.33;;;1.20;;
14141;SDS011;7151;52.246;4.820;2023-08-21T09:36:05;4.43;;;1.93;;
14141;SDS011;7151;52.246;4.820;2023-08-21T09:38:33;3.63;;;1.70;;
14141;SDS011;7151;52.246;4.820;2023-08-21T09:41:00;3.60;;;1.40;;
14141;SDS011;7151;52.246;4.820;2023-08-21T09:43:26;4.60;;;1.47;;
14141;SDS011;7151;52.246;4.820;2023-08-21T09:45:53;2.90;;;1.37;;
14141;SDS011;7151;52.246;4.820;2023-08-21T09:48:24;1.17;;;1.00;;
14141;SDS011;7151;52.246;4.820;2023-08-21T09:50:53;3.20;;;1.00;;
14141;SDS011;7151;52.246;4.820;2023-08-21T09:53:22;3.67;;;1.40;;
14141;SDS011;7151;52.246;4.820;2023-08-21T09:55:52;4.03;;;1.40;;
14141;SDS011;7151;52.246;4.820;2023-08-21T09:58:19;1.80;;;1.10;;
14141;SDS011;7151;52.246;4.820;2023-08-21T10:00:45;2.13;;;1.07;;
14141;SDS011;7151;52.246;4.820;2023-08-21T10:03:13;6.00;;;1.33;;
14141;SDS011;7151;52.246;4.820;2023-08-21T10:05:42;1.00;;;1.00;;
14141;SDS011;7151;52.246;4.820;2023-08-21T10:08:08;1.10;;;0.90;;
14141;SDS011;7151;52.246;4.820;2023-08-21T10:10:35;5.63;;;1.13;;
14141;SDS011;7151;52.246;4.820;2023-08-21T10:13:02;1.97;;;1.40;;
14141;SDS011;7151;52.246;4.820;2023-08-21T10:15:29;5.30;;;1.40;;
14141;SDS011;7151;52.246;4.820;2023-08-21T10:17:57;3.27;;;1.40;;
14141;SDS011;7151;52.246;4.820;2023-08-21T10:20:24;1.40;;;1.30;;
14141;SDS011;7151;52.246;4.820;2023-08-21T10:22:54;2.50;;;1.03;;
14141;SDS011;7151;52.246;4.820;2023-08-21T10:25:26;4.37;;;1.70;;
14141;SDS011;7151;52.246;4.820;2023-08-21T10:27:53;1.97;;;1.00;;
14141;SDS011;7151;52.246;4.820;2023-08-21T10:30:26;3.80;;;1.20;;
14141;SDS011;7151;52.246;4.820;2023-08-21T10:32:57;2.13;;;1.10;;
14141;SDS011;7151;52.246;4.820;2023-08-21T10:35:24;2.83;;;1.47;;
14141;SDS011;7151;52.246;4.820;2023-08-21T10:40:37;4.47;;;1.10;;
14141;SDS011;7151;52.246;4.820;2023-08-21T10:43:04;1.63;;;1.00;;
14141;SDS011;7151;52.246;4.820;2023-08-21T10:45:53;2.80;;;1.00;;
14141;SDS011;7151;52.246;4.820;2023-08-21T10:48:20;2.57;;;1.27;;
14141;SDS011;7151;52.246;4.820;2023-08-21T10:50:46;1.67;;;1.00;;
14141;SDS011;7151;52.246;4.820;2023-08-21T10:53:12;2.97;;;1.00;;
14141;SDS011;7151;52.246;4.820;2023-08-21T10:55:38;4.33;;;1.10;;
14141;SDS011;7151;52.246;4.820;2023-08-21T10:58:04;1.77;;;0.70;;
14141;SDS011;7151;52.246;4.820;2023-08-21T11:00:29;1.07;;;0.60;;
14141;SDS011;7151;52.246;4.820;2023-08-21T11:02:55;1.53;;;0.70;;
14141;SDS011;7151;52.246;4.820;2023-08-21T11:05:20;2.97;;;1.00;;
14141;SDS011;7151;52.246;4.820;2023-08-21T11:07:46;2.00;;;0.70;;
14141;SDS011;7151;52.246;4.820;2023-08-21T11:10:14;2.05;;;1.08;;
14141;SDS011;7151;52.246;4.820;2023-08-21T11:12:50;3.33;;;0.80;;
14141;SDS011;7151;52.246;4.820;2023-08-21T11:15:17;1.37;;;0.90;;
14141;SDS011;7151;52.246;4.820;2023-08-21T11:17:50;0.60;;;0.60;;
14141;SDS011;7151;52.246;4.820;2023-08-21T11:20:32;2.92;;;0.80;;
14141;SDS011;7151;52.246;4.820;2023-08-21T11:22:59;1.17;;;0.68;;
14141;SDS011;7151;52.246;4.820;2023-08-21T11:25:27;0.70;;;0.63;;
14141;SDS011;7151;52.246;4.820;2023-08-21T11:27:54;1.90;;;0.90;;
14141;SDS011;7151;52.246;4.820;2023-08-21T11:30:22;1.10;;;0.57;;
14141;SDS011;7151;52.246;4.820;2023-08-21T11:32:48;1.08;;;0.60;;
14141;SDS011;7151;52.246;4.820;2023-08-21T11:35:14;1.35;;;0.60;;
14141;SDS011;7151;52.246;4.820;2023-08-21T11:37:43;0.88;;;0.60;;
14141;SDS011;7151;52.246;4.820;2023-08-21T11:40:12;1.88;;;0.70;;
14141;SDS011;7151;52.246;4.820;2023-08-21T11:42:39;2.33;;;0.60;;
14141;SDS011;7151;52.246;4.820;2023-08-21T11:45:05;1.48;;;0.70;;
14141;SDS011;7151;52.246;4.820;2023-08-21T11:47:31;1.15;;;0.80;;
14141;SDS011;7151;52.246;4.820;2023-08-21T11:50:07;1.13;;;0.85;;
14141;SDS011;7151;52.246;4.820;2023-08-21T11:52:36;1.20;;;1.00;;
14141;SDS011;7151;52.246;4.820;2023-08-21T11:55:06;1.25;;;0.70;;
14141;SDS011;7151;52.246;4.820;2023-08-21T11:57:34;1.58;;;1.08;;
14141;SDS011;7151;52.246;4.820;2023-08-21T11:59:59;3.25;;;0.75;;
14141;SDS011;7151;52.246;4.820;2023-08-21T12:02:26;2.72;;;1.05;;
14141;SDS011;7151;52.246;4.820;2023-08-21T12:05:03;1.80;;;1.10;;
14141;SDS011;7151;52.246;4.820;2023-08-21T12:07:30;2.72;;;0.68;;
14141;SDS011;7151;52.246;4.820;2023-08-21T12:09:57;0.70;;;0.60;;
14141;SDS011;7151;52.246;4.820;2023-08-21T12:12:23;2.15;;;0.82;;
14141;SDS011;7151;52.246;4.820;2023-08-21T12:14:48;0.60;;;0.60;;
14141;SDS011;7151;52.246;4.820;2023-08-21T12:17:14;1.95;;;0.75;;
14141;SDS011;7151;52.246;4.820;2023-08-21T12:19:40;1.77;;;0.90;;
14141;SDS011;7151;52.246;4.820;2023-08-21T12:22:06;1.23;;;0.73;;
14141;SDS011;7151;52.246;4.820;2023-08-21T12:24:32;0.70;;;0.70;;
14141;SDS011;7151;52.246;4.820;2023-08-21T12:26:58;1.88;;;1.00;;
14141;SDS011;7151;52.246;4.820;2023-08-21T12:29:23;2.22;;;1.13;;
14141;SDS011;7151;52.246;4.820;2023-08-21T12:31:49;2.20;;;0.80;;
14141;SDS011;7151;52.246;4.820;2023-08-21T12:34:14;0.63;;;0.60;;
14141;SDS011;7151;52.246;4.820;2023-08-21T12:36:40;1.10;;;0.70;;
14141;SDS011;7151;52.246;4.820;2023-08-21T12:39:06;2.15;;;0.80;;
14141;SDS011;7151;52.246;4.820;2023-08-21T12:41:32;0.75;;;0.70;;
14141;SDS011;7151;52.246;4.820;2023-08-21T12:43:58;1.70;;;0.70;;
14141;SDS011;7151;52.246;4.820;2023-08-21T12:46:24;1.27;;;0.65;;
14141;SDS011;7151;52.246;4.820;2023-08-21T12:48:52;1.02;;;0.85;;
14141;SDS011;7151;52.246;4.820;2023-08-21T12:51:18;1.52;;;0.80;;
14141;SDS011;7151;52.246;4.820;2023-08-21T12:53:44;1.38;;;0.68;;
14141;SDS011;7151;52.246;4.820;2023-08-21T12:56:09;1.42;;;0.63;;
14141;SDS011;7151;52.246;4.820;2023-08-21T12:58:35;3.00;;;0.95;;
14141;SDS011;7151;52.246;4.820;2023-08-21T13:01:00;2.45;;;1.08;;
14141;SDS011;7151;52.246;4.820;2023-08-21T13:03:28;1.48;;;0.80;;
14141;SDS011;7151;52.246;4.820;2023-08-21T13:05:54;2.53;;;1.08;;
14141;SDS011;7151;52.246;4.820;2023-08-21T13:08:20;4.03;;;1.10;;
14141;SDS011;7151;52.246;4.820;2023-08-21T13:10:46;2.17;;;0.70;;
14141;SDS011;7151;52.246;4.820;2023-08-21T13:13:11;1.58;;;1.00;;
14141;SDS011;7151;52.246;4.820;2023-08-21T13:15:37;2.90;;;1.25;;
14141;SDS011;7151;52.246;4.820;2023-08-21T13:18:03;3.05;;;1.10;;
14141;SDS011;7151;52.246;4.820;2023-08-21T13:20:29;5.28;;;0.82;;
14141;SDS011;7151;52.246;4.820;2023-08-21T13:22:55;3.00;;;0.88;;
14141;SDS011;7151;52.246;4.820;2023-08-21T13:25:21;2.00;;;0.90;;
14141;SDS011;7151;52.246;4.820;2023-08-21T13:27:49;1.27;;;0.88;;
14141;SDS011;7151;52.246;4.820;2023-08-21T13:30:16;1.45;;;0.90;;
14141;SDS011;7151;52.246;4.820;2023-08-21T13:32:42;1.33;;;0.93;;
14141;SDS011;7151;52.246;4.820;2023-08-21T13:35:07;1.80;;;0.70;;
14141;SDS011;7151;52.246;4.820;2023-08-21T13:37:34;3.28;;;1.10;;
14141;SDS011;7151;52.246;4.820;2023-08-21T13:40:00;3.03;;;1.00;;
14141;SDS011;7151;52.246;4.820;2023-08-21T13:42:33;1.55;;;1.08;;
14141;SDS011;7151;52.246;4.820;2023-08-21T13:45:02;1.52;;;0.85;;
14141;SDS011;7151;52.246;4.820;2023-08-21T13:47:28;1.10;;;0.68;;
14141;SDS011;7151;52.246;4.820;2023-08-21T13:49:54;2.22;;;0.93;;
14141;SDS011;7151;52.246;4.820;2023-08-21T13:52:19;0.70;;;0.65;;
14141;SDS011;7151;52.246;4.820;2023-08-21T13:54:45;1.67;;;0.90;;
14141;SDS011;7151;52.246;4.820;2023-08-21T13:57:11;1.42;;;0.60;;
14141;SDS011;7151;52.246;4.820;2023-08-21T13:59:36;1.85;;;0.88;;
14141;SDS011;7151;52.246;4.820;2023-08-21T14:02:02;2.03;;;1.00;;
14141;SDS011;7151;52.246;4.820;2023-08-21T14:04:29;1.85;;;0.80;;
14141;SDS011;7151;52.246;4.820;2023-08-21T14:06:57;1.73;;;0.90;;
14141;SDS011;7151;52.246;4.820;2023-08-21T14:09:22;1.92;;;0.90;;
14141;SDS011;7151;52.246;4.820;2023-08-21T14:11:48;2.47;;;0.90;;
14141;SDS011;7151;52.246;4.820;2023-08-21T14:14:14;1.27;;;0.90;;
14141;SDS011;7151;52.246;4.820;2023-08-21T14:16:39;1.38;;;1.02;;
14141;SDS011;7151;52.246;4.820;2023-08-21T14:19:05;1.27;;;0.75;;
14141;SDS011;7151;52.246;4.820;2023-08-21T14:21:30;1.85;;;1.00;;
14141;SDS011;7151;52.246;4.820;2023-08-21T14:23:56;0.88;;;0.80;;
14141;SDS011;7151;52.246;4.820;2023-08-21T14:26:21;1.65;;;1.20;;
14141;SDS011;7151;52.246;4.820;2023-08-21T14:28:47;4.00;;;1.00;;
14141;SDS011;7151;52.246;4.820;2023-08-21T14:31:15;3.08;;;1.00;;
14141;SDS011;7151;52.246;4.820;2023-08-21T14:33:41;4.85;;;0.88;;
14141;SDS011;7151;52.246;4.820;2023-08-21T14:36:07;1.02;;;0.80;;
14141;SDS011;7151;52.246;4.820;2023-08-21T14:38:32;4.20;;;0.90;;
14141;SDS011;7151;52.246;4.820;2023-08-21T14:40:58;2.85;;;0.90;;
14141;SDS011;7151;52.246;4.820;2023-08-21T14:43:23;2.95;;;0.85;;
14141;SDS011;7151;52.246;4.820;2023-08-21T14:45:49;0.80;;;0.80;;
14141;SDS011;7151;52.246;4.820;2023-08-21T14:48:15;3.25;;;1.15;;
14141;SDS011;7151;52.246;4.820;2023-08-21T14:50:41;3.67;;;1.10;;
14141;SDS011;7151;52.246;4.820;2023-08-21T14:53:07;0.93;;;0.90;;
14141;SDS011;7151;52.246;4.820;2023-08-21T14:55:33;2.33;;;0.98;;
14141;SDS011;7151;52.246;4.820;2023-08-21T14:57:59;2.63;;;1.20;;
14141;SDS011;7151;52.246;4.820;2023-08-21T15:00:30;1.30;;;0.82;;